Terminal Aerodrome Forecast
Issued by NWS

Home | Current Version | Previous Version | Text Only | Print | Product List | Glossary On
Versions: 1 2 3 4 5 6 7 8 9 10 11 12 13 14 15 16 17 18
000
FTUS44 KLZK 270520
TAFBPK
TAF
KBPK 270520Z 2706/2806 16005KT P6SM BKN005 OVC030
     FM271000 15008KT P6SM VCTS BKN005CB OVC012
      TEMPO 2710/2713 3SM BR
     FM271800 17012KT P6SM -SHRA VCTS SCT012 OVC025CB
      TEMPO 2721/2801 2SM -TSRA OVC010CB
     FM280100 17012KT 6SM BR OVC040 PROB30 2801/2806 5SM -SHRA BR
      OVC025=

USA.gov is the U.S. government's official web portal to all federal, state and local government web resources and services.